首页
METAR-TAF:

METAR-TAF

机场 :

馬拉博機場

馬拉博, 赤道几内亚

纬度: 03-45-18N, 经度: 08-42-31E, 海拔: 23米

当前天气观测

该预报发布于35分钟前的12:00 UTC
风速9节,风向西南
温度 25°C
湿度 89%
气压 1014 hPa
能见度10公里或以上
散云层高于800英尺
少量云层高于2000英尺, 积雨云.
多云层高于6000英尺

METAR: FGSL 181200Z 22009KT 9999 SCT008 FEW020CB BKN060 25/23 Q1014 NOSIG

时间: 13:35 (12:35 UTC)

预报

该预报发布于1小时和35分钟前的11:00 UTC
预报有效从18日的 12点(UTC)到 19日的 18点(UTC)
风速8节,风向西转西南
能見度: 6000
散云层高于1000英尺
少量云层高于2000英尺, 积雨云.
短暂存在
从 18日的 12点(UTC)到 18日的 18点(UTC)
能見度: 4000
多云层高于800英尺
少量云层高于1800英尺, 积雨云.
雨, 毛毛雨
几率 30% :
短暂存在
从 19日的 02点(UTC)到 19日的 07点(UTC)
能見度: 4000
多云层高于800英尺
少量云层高于1800英尺, 积雨云.
雷暴, 雨, 毛毛雨
几率 30%
从 19日的 11点(UTC)到 19日的 16点(UTC)
多云层高于1000英尺
少量云层高于2000英尺, 积雨云.

TAF: FGSL 181100Z 1812/1918 24008KT 6000 SCT010 FEW020CB TEMPO 1812/1818 4000 RADZ BKN008 FEW018CB PROB30 TEMPO 1902/1907 4000 TSRADZ BKN008 FEW018CB PROB30 1911/1916 BKN010 FEW020CB

超过4000个机场的气象观测和天气预报(METAR&TAF报告)。

可查询的气象台以黄色和红色小点在地图上表示。

将鼠标移到小点上方,可查看气象台名称。

然后点击查看天气观测和预报。

如需切换地图:点击带黑十字的绿色按钮放大地图;点击带横线的绿色按钮缩小地图;或者点击绿色箭头查看邻近地区的地图。


METAR-TAF: